createdAt,value
2022-08-03T00:00:41.421Z,15.53
2022-08-03T00:03:11.760Z,15.52
2022-08-03T00:05:40.439Z,15.53
2022-08-03T00:08:29.250Z,15.53
2022-08-03T00:10:58.468Z,15.50
2022-08-03T00:13:27.677Z,15.47
2022-08-03T00:15:56.854Z,15.50
2022-08-03T00:18:27.005Z,15.49
2022-08-03T00:20:55.907Z,15.51
2022-08-03T00:23:24.631Z,15.49
2022-08-03T00:25:54.470Z,15.46
2022-08-03T00:28:23.295Z,15.46
2022-08-03T00:30:57.986Z,15.44
2022-08-03T00:33:28.226Z,15.40
2022-08-03T00:36:16.970Z,15.42
2022-08-03T00:38:51.472Z,15.37
2022-08-03T00:41:20.440Z,15.37
2022-08-03T00:43:49.644Z,15.39
2022-08-03T00:46:21.802Z,15.37
2022-08-03T00:48:53.394Z,15.38
2022-08-03T00:51:23.720Z,15.36
2022-08-03T00:53:52.971Z,15.36
2022-08-03T00:56:21.823Z,15.35
2022-08-03T00:58:54.486Z,15.32
2022-08-03T01:01:23.523Z,15.35
2022-08-03T01:03:53.770Z,15.32
2022-08-03T01:06:37.390Z,15.26
2022-08-03T01:09:17.947Z,15.25
2022-08-03T01:12:01.675Z,15.21
2022-08-03T01:14:41.850Z,15.23
2022-08-03T01:17:20.540Z,15.16
2022-08-03T01:20:01.863Z,15.14
2022-08-03T01:23:07.248Z,15.16
2022-08-03T01:25:56.777Z,15.12
2022-08-03T01:28:47.612Z,15.09
2022-08-03T01:31:30.220Z,15.08
2022-08-03T01:34:04.730Z,15.02
2022-08-03T01:36:44.697Z,15.04
2022-08-03T01:39:14.601Z,15.04
2022-08-03T01:41:52.165Z,15.03
2022-08-03T01:44:29.735Z,15.02
2022-08-03T01:47:03.554Z,15.04
2022-08-03T01:49:38.773Z,15.09
2022-08-03T01:52:10.278Z,15.11
2022-08-03T01:54:45.328Z,15.08
2022-08-03T01:57:16.445Z,15.08
2022-08-03T01:59:48.736Z,15.10
2022-08-03T02:02:32.975Z,15.02
2022-08-03T02:05:10.785Z,15.02
2022-08-03T02:07:43.462Z,15.01
2022-08-03T02:10:34.582Z,15.00
2022-08-03T02:13:08.681Z,15.04
2022-08-03T02:15:39.311Z,15.03
2022-08-03T02:18:14.550Z,15.03
2022-08-03T02:20:45.553Z,15.02
2022-08-03T02:23:17.289Z,15.08
2022-08-03T02:25:52.168Z,15.32
2022-08-03T02:28:23.547Z,15.61
2022-08-03T02:30:58.136Z,15.91
2022-08-03T02:33:35.388Z,16.21
2022-08-03T02:36:06.652Z,16.46
2022-08-03T02:38:40.171Z,16.76
2022-08-03T02:41:16.548Z,17.07
2022-08-03T02:44:06.515Z,17.27
2022-08-03T02:46:40.852Z,17.55
2022-08-03T02:49:40.899Z,17.61
2022-08-03T02:52:05.248Z,17.79
2022-08-03T02:54:37.321Z,17.83
2022-08-03T02:57:09.183Z,18.00
2022-08-03T02:59:41.446Z,18.17
2022-08-03T03:02:12.311Z,18.32
2022-08-03T03:05:50.640Z,18.56
2022-08-03T03:07:51.948Z,18.75
2022-08-03T03:10:23.317Z,18.87
2022-08-03T03:12:56.508Z,18.90
2022-08-03T03:15:29.739Z,18.98
2022-08-03T03:18:00.911Z,19.10
2022-08-03T03:20:33.958Z,19.18
2022-08-03T03:23:03.876Z,19.14
2022-08-03T03:25:34.205Z,18.99
2022-08-03T03:28:06.482Z,18.81
2022-08-03T03:30:36.001Z,18.60
2022-08-03T03:33:04.940Z,18.30
2022-08-03T03:35:38.771Z,18.14
2022-08-03T03:38:08.347Z,18.01
2022-08-03T03:40:37.652Z,17.79
2022-08-03T03:43:10.275Z,17.62
2022-08-03T03:45:41.639Z,17.55
2022-08-03T03:48:13.321Z,17.47
2022-08-03T03:50:45.181Z,17.45
2022-08-03T03:53:19.918Z,17.39
2022-08-03T03:56:02.040Z,17.35
2022-08-03T03:58:33.802Z,17.38
2022-08-03T04:01:02.980Z,17.37
2022-08-03T04:03:32.028Z,17.41
2022-08-03T04:06:19.676Z,17.42
2022-08-03T04:09:13.994Z,17.45
2022-08-03T04:11:50.218Z,17.45
2022-08-03T04:14:25.874Z,17.50
2022-08-03T04:17:02.683Z,17.53
2022-08-03T04:19:38.392Z,17.57
2022-08-03T04:22:13.703Z,17.66
2022-08-03T04:24:48.955Z,17.75
2022-08-03T04:27:23.638Z,17.93
2022-08-03T04:29:56.525Z,18.07
2022-08-03T04:32:28.851Z,18.23
2022-08-03T04:34:59.860Z,18.38
2022-08-03T04:37:40.051Z,18.46
2022-08-03T04:40:15.769Z,18.54
2022-08-03T04:42:45.619Z,18.63
2022-08-03T04:45:16.222Z,18.61
2022-08-03T04:47:45.792Z,18.68
2022-08-03T04:50:18.222Z,18.77
2022-08-03T04:53:09.096Z,18.88
2022-08-03T04:55:38.374Z,18.88
2022-08-03T04:58:07.606Z,19.03
2022-08-03T05:00:36.969Z,19.12
2022-08-03T05:03:20.414Z,19.09
2022-08-03T05:06:09.990Z,19.05
2022-08-03T05:08:50.779Z,19.14
2022-08-03T05:11:20.661Z,19.23
2022-08-03T05:13:49.744Z,19.28
2022-08-03T05:16:18.833Z,19.30
2022-08-03T05:18:47.674Z,19.42
2022-08-03T05:21:17.059Z,19.57
2022-08-03T05:23:50.415Z,19.55
2022-08-03T05:26:19.183Z,19.51
2022-08-03T05:28:51.337Z,19.58
2022-08-03T05:31:22.973Z,19.62
2022-08-03T05:33:52.192Z,19.70
2022-08-03T05:36:20.954Z,19.75
2022-08-03T05:38:51.036Z,19.85
2022-08-03T05:41:36.432Z,19.93
2022-08-03T05:44:09.079Z,19.94
2022-08-03T05:46:38.044Z,20.08
2022-08-03T05:49:07.019Z,20.23
2022-08-03T05:51:37.233Z,20.28
2022-08-03T05:54:07.462Z,20.28
2022-08-03T05:56:36.271Z,20.30
2022-08-03T05:59:28.665Z,20.37
2022-08-03T06:01:55.960Z,20.52
2022-08-03T06:04:24.733Z,20.64
2022-08-03T06:06:53.545Z,20.70
2022-08-03T06:09:23.660Z,20.84
2022-08-03T06:12:14.331Z,21.03
2022-08-03T06:14:43.417Z,21.27
2022-08-03T06:17:12.181Z,21.45
2022-08-03T06:19:41.541Z,21.63
2022-08-03T06:22:10.416Z,21.85
2022-08-03T06:24:41.716Z,21.91
2022-08-03T06:27:36.381Z,21.99
2022-08-03T06:30:08.737Z,21.91
2022-08-03T06:32:39.891Z,21.89
2022-08-03T06:35:16.414Z,21.93
2022-08-03T06:37:46.110Z,21.90
2022-08-03T06:40:21.832Z,22.02
2022-08-03T06:42:53.420Z,22.01
2022-08-03T06:45:22.761Z,21.87
2022-08-03T06:48:02.948Z,21.80
2022-08-03T06:50:32.215Z,21.87
2022-08-03T06:53:01.900Z,21.86
2022-08-03T06:55:32.900Z,21.94
2022-08-03T06:58:05.112Z,22.01
2022-08-03T07:00:34.136Z,22.15
2022-08-03T07:03:03.019Z,22.24
2022-08-03T07:05:33.619Z,22.35
2022-08-03T07:08:03.292Z,22.43
2022-08-03T07:10:34.039Z,22.45
2022-08-03T07:13:02.875Z,22.50
2022-08-03T07:15:55.241Z,22.64
2022-08-03T07:18:29.978Z,22.73
2022-08-03T07:20:59.435Z,22.90
2022-08-03T07:23:28.706Z,22.87
2022-08-03T07:25:58.846Z,22.99
2022-08-03T07:28:30.100Z,23.08
2022-08-03T07:30:59.581Z,23.05
2022-08-03T07:33:28.465Z,23.20
2022-08-03T07:36:00.167Z,23.28
2022-08-03T07:38:30.102Z,23.29
2022-08-03T07:41:00.360Z,23.34
2022-08-03T07:43:29.149Z,23.46
2022-08-03T07:45:57.881Z,23.48
2022-08-03T07:48:26.579Z,23.52
2022-08-03T07:50:55.598Z,23.43
2022-08-03T07:53:24.305Z,23.43
2022-08-03T07:55:53.033Z,23.43
2022-08-03T07:58:24.312Z,23.56
2022-08-03T08:00:54.094Z,23.58
2022-08-03T08:03:23.046Z,23.61
2022-08-03T08:05:51.828Z,23.66
2022-08-03T08:08:21.305Z,23.73
2022-08-03T08:10:58.416Z,23.69
2022-08-03T08:13:28.942Z,23.71
2022-08-03T08:15:57.990Z,23.71
2022-08-03T08:18:29.595Z,23.82
2022-08-03T08:21:01.627Z,23.99
2022-08-03T08:23:42.245Z,24.08
2022-08-03T08:26:12.879Z,24.20
2022-08-03T08:28:42.921Z,24.32
2022-08-03T08:31:11.728Z,24.43
2022-08-03T08:36:29.198Z,24.50
2022-08-03T08:38:58.039Z,24.58
2022-08-03T08:41:32.167Z,24.59
2022-08-03T08:44:03.068Z,24.57
2022-08-03T08:46:35.436Z,24.48
2022-08-03T08:49:04.970Z,24.60
2022-08-03T08:51:59.047Z,24.78
2022-08-03T08:54:27.974Z,24.73
2022-08-03T08:57:16.441Z,24.78
2022-08-03T08:59:57.437Z,24.80
2022-08-03T09:02:29.401Z,24.86
2022-08-03T09:05:07.608Z,24.93
2022-08-03T09:07:37.178Z,24.96
2022-08-03T09:10:12.796Z,25.01
2022-08-03T09:12:45.306Z,24.90
2022-08-03T09:15:26.786Z,24.80
2022-08-03T09:18:01.912Z,24.68
2022-08-03T09:20:34.801Z,24.45
2022-08-03T09:23:43.017Z,24.41
2022-08-03T09:26:01.826Z,24.32
2022-08-03T09:28:58.005Z,24.28
2022-08-03T09:31:35.860Z,24.31
2022-08-03T09:34:09.531Z,24.32
2022-08-03T09:36:44.773Z,24.47
2022-08-03T09:39:15.673Z,24.55
2022-08-03T09:41:48.606Z,24.55
2022-08-03T09:44:25.394Z,24.58
2022-08-03T09:46:57.872Z,24.45
2022-08-03T09:49:26.799Z,24.50
2022-08-03T09:52:33.607Z,24.49
2022-08-03T09:54:45.225Z,24.46
2022-08-03T09:57:24.334Z,24.37
2022-08-03T10:00:01.969Z,24.41
2022-08-03T10:02:44.261Z,24.60
2022-08-03T10:05:19.645Z,24.79
2022-08-03T10:07:53.720Z,24.89
2022-08-03T10:10:30.971Z,25.01
2022-08-03T10:13:02.299Z,24.95
2022-08-03T10:16:22.329Z,25.06
2022-08-03T10:18:22.723Z,25.18
2022-08-03T10:20:56.665Z,25.41
2022-08-03T10:23:27.910Z,25.73
2022-08-03T10:26:04.037Z,25.90
2022-08-03T10:28:44.301Z,25.97
2022-08-03T10:31:15.971Z,25.90
2022-08-03T10:33:53.022Z,25.96
2022-08-03T10:36:26.888Z,25.93
2022-08-03T10:38:58.276Z,25.92
2022-08-03T10:41:33.893Z,25.81
2022-08-03T10:44:08.234Z,25.84
2022-08-03T10:46:44.798Z,25.85
2022-08-03T10:49:32.821Z,25.76
2022-08-03T10:52:10.386Z,25.80
2022-08-03T10:55:03.341Z,25.99
2022-08-03T10:57:58.615Z,26.11
2022-08-03T11:00:30.633Z,26.38
2022-08-03T11:03:18.688Z,26.48
2022-08-03T11:05:50.287Z,26.58
2022-08-03T11:08:31.755Z,26.66
2022-08-03T11:11:25.086Z,26.70
2022-08-03T11:14:03.334Z,26.64
2022-08-03T11:16:36.219Z,26.62
2022-08-03T11:19:08.114Z,26.79
2022-08-03T11:21:59.296Z,26.67
2022-08-03T11:25:00.184Z,26.74
2022-08-03T11:27:37.677Z,26.60
2022-08-03T11:30:11.737Z,26.65
2022-08-03T11:33:00.015Z,26.79
2022-08-03T11:35:31.567Z,26.85
2022-08-03T11:38:11.707Z,26.86
2022-08-03T11:40:46.827Z,26.88
2022-08-03T11:43:47.496Z,26.67
2022-08-03T11:46:29.443Z,26.69
2022-08-03T11:49:10.460Z,26.44
2022-08-03T11:51:40.987Z,26.40
2022-08-03T11:54:11.520Z,26.41
2022-08-03T11:56:50.211Z,26.45
2022-08-03T11:59:22.298Z,26.46
2022-08-03T12:01:52.184Z,26.35
2022-08-03T12:04:21.229Z,26.13
2022-08-03T12:07:03.728Z,26.00
2022-08-03T12:09:36.308Z,26.04
2022-08-03T12:12:05.789Z,26.41
2022-08-03T12:14:49.684Z,26.70
2022-08-03T12:17:21.111Z,26.98
2022-08-03T12:19:50.103Z,26.99
2022-08-03T12:22:32.842Z,26.86
2022-08-03T12:25:07.297Z,26.99
2022-08-03T12:27:37.042Z,27.05
2022-08-03T12:30:07.645Z,27.17
2022-08-03T12:32:39.440Z,27.20
2022-08-03T12:35:10.275Z,27.16
2022-08-03T12:37:39.029Z,27.13
2022-08-03T12:40:17.830Z,27.33
2022-08-03T12:42:49.109Z,27.41
2022-08-03T12:45:25.421Z,27.25
2022-08-03T12:47:57.103Z,27.14
2022-08-03T12:50:28.877Z,27.10
2022-08-03T12:52:58.716Z,27.14
2022-08-03T12:55:56.200Z,27.09
2022-08-03T12:58:34.569Z,27.20
2022-08-03T13:01:09.191Z,27.38
2022-08-03T13:03:45.704Z,27.50
2022-08-03T13:06:27.922Z,27.58
2022-08-03T13:09:06.616Z,27.53
2022-08-03T13:11:57.258Z,27.61
2022-08-03T13:14:25.754Z,27.55
2022-08-03T13:16:55.346Z,27.37
2022-08-03T13:19:28.803Z,27.22
2022-08-03T13:22:04.455Z,27.37
2022-08-03T13:24:35.124Z,27.30
2022-08-03T13:28:02.022Z,27.39
2022-08-03T13:29:56.662Z,27.40
2022-08-03T13:32:26.391Z,27.42
2022-08-03T13:34:55.181Z,27.37
2022-08-03T13:37:35.009Z,27.37
2022-08-03T13:40:07.297Z,27.39
2022-08-03T13:42:38.952Z,27.49
2022-08-03T13:45:09.899Z,27.43
2022-08-03T13:47:39.026Z,27.57
2022-08-03T13:50:08.453Z,27.64
2022-08-03T13:52:37.931Z,27.62
2022-08-03T13:55:10.726Z,27.80
2022-08-03T13:58:12.144Z,27.88
2022-08-03T14:00:30.865Z,27.77
2022-08-03T14:03:13.131Z,27.74
2022-08-03T14:05:43.656Z,27.77
2022-08-03T14:08:13.933Z,27.97
2022-08-03T14:10:45.601Z,27.97
2022-08-03T14:13:16.777Z,28.00
2022-08-03T14:15:50.340Z,27.94
2022-08-03T14:18:29.223Z,27.98
2022-08-03T14:21:07.352Z,28.06
2022-08-03T14:23:38.766Z,28.07
2022-08-03T14:26:08.889Z,28.08
2022-08-03T14:28:39.280Z,28.16
2022-08-03T14:32:09.144Z,28.37
2022-08-03T14:33:57.410Z,28.36
2022-08-03T14:36:26.319Z,28.70
2022-08-03T14:38:59.370Z,28.93
2022-08-03T14:41:29.867Z,29.08
2022-08-03T14:44:01.472Z,29.38
2022-08-03T14:46:32.261Z,29.61
2022-08-03T14:50:30.829Z,29.55
2022-08-03T14:51:51.312Z,29.77
2022-08-03T14:54:23.069Z,30.02
2022-08-03T14:56:52.104Z,30.14
2022-08-03T14:59:22.230Z,30.36
2022-08-03T15:02:04.674Z,30.46
2022-08-03T15:04:36.416Z,30.53
2022-08-03T15:07:05.245Z,30.33
2022-08-03T15:09:34.338Z,30.17
2022-08-03T15:12:03.559Z,30.11
2022-08-03T15:14:34.947Z,30.15
2022-08-03T15:17:06.984Z,30.16
2022-08-03T15:20:01.596Z,30.20
2022-08-03T15:22:34.721Z,30.13
2022-08-03T15:26:03.664Z,30.01
2022-08-03T15:28:03.718Z,29.77
2022-08-03T15:30:37.093Z,29.93
2022-08-03T15:33:06.736Z,30.15
2022-08-03T15:35:35.772Z,30.28
2022-08-03T15:38:09.031Z,30.36
2022-08-03T15:40:38.818Z,30.69
2022-08-03T15:43:09.219Z,30.87
2022-08-03T15:45:41.895Z,30.79
2022-08-03T15:48:11.128Z,30.86
2022-08-03T15:50:39.997Z,31.00
2022-08-03T15:53:08.811Z,31.30
2022-08-03T15:55:37.502Z,31.48
2022-08-03T15:59:04.856Z,31.25
2022-08-03T16:00:56.996Z,31.49
2022-08-03T16:03:34.466Z,31.68
2022-08-03T16:06:04.950Z,31.86
2022-08-03T16:08:35.999Z,31.86
2022-08-03T16:11:04.772Z,31.94
2022-08-03T16:14:12.870Z,31.63
2022-08-03T16:16:24.052Z,31.07
2022-08-03T16:18:52.840Z,30.40
2022-08-03T16:21:22.029Z,29.96
2022-08-03T16:23:57.109Z,29.63
2022-08-03T16:26:28.864Z,29.53
2022-08-03T16:29:01.156Z,29.78
2022-08-03T16:31:31.649Z,30.05
2022-08-03T16:34:00.433Z,30.34
2022-08-03T16:36:34.690Z,30.73
2022-08-03T16:39:03.942Z,30.84
2022-08-03T16:41:53.873Z,30.83
2022-08-03T16:44:21.764Z,30.87
2022-08-03T16:46:52.365Z,31.02
2022-08-03T16:49:54.467Z,31.15
2022-08-03T16:52:10.531Z,31.16
2022-08-03T16:54:42.288Z,31.40
2022-08-03T16:57:11.028Z,31.55
2022-08-03T16:59:40.867Z,31.49
2022-08-03T17:02:26.140Z,31.60
2022-08-03T17:04:58.188Z,31.70
2022-08-03T17:07:29.615Z,31.66
2022-08-03T17:09:59.620Z,31.58
2022-08-03T17:12:32.262Z,31.38
2022-08-03T17:15:01.313Z,31.32
2022-08-03T17:17:47.534Z,31.13
2022-08-03T17:20:29.692Z,31.16
2022-08-03T17:23:34.577Z,30.93
2022-08-03T17:26:11.601Z,30.33
2022-08-03T17:28:52.127Z,29.69
2022-08-03T17:31:31.795Z,28.98
2022-08-03T17:34:04.285Z,28.37
2022-08-03T17:37:02.214Z,28.06
2022-08-03T17:39:48.475Z,27.67
2022-08-03T17:42:29.142Z,27.36
2022-08-03T17:45:03.923Z,27.14
2022-08-03T17:50:40.228Z,26.92
2022-08-03T17:53:23.547Z,26.85
2022-08-03T17:56:42.386Z,27.14
2022-08-03T17:59:08.223Z,27.25
2022-08-03T18:02:18.520Z,27.35
2022-08-03T18:05:16.751Z,27.38
2022-08-03T18:08:00.862Z,27.21
2022-08-03T18:10:46.811Z,26.87
2022-08-03T18:13:25.547Z,26.57
2022-08-03T18:16:04.461Z,26.38
2022-08-03T18:18:39.902Z,26.13
2022-08-03T18:21:16.654Z,25.92
2022-08-03T18:23:53.545Z,25.67
2022-08-03T18:26:30.626Z,25.47
2022-08-03T18:29:04.947Z,25.33
2022-08-03T18:32:02.784Z,25.11
2022-08-03T18:34:33.582Z,24.92
2022-08-03T18:37:08.095Z,24.78
2022-08-03T18:39:49.838Z,24.65
2022-08-03T18:42:25.723Z,24.57
2022-08-03T18:44:57.017Z,24.44
2022-08-03T18:47:52.282Z,24.36
2022-08-03T18:50:32.538Z,24.25
2022-08-03T18:53:19.380Z,24.17
2022-08-03T18:56:03.931Z,24.13
2022-08-03T18:58:46.083Z,24.01
2022-08-03T19:01:58.451Z,23.90
2022-08-03T19:04:36.674Z,23.82
2022-08-03T19:07:11.165Z,23.76
2022-08-03T19:09:54.519Z,23.66
2022-08-03T19:12:39.459Z,23.57
2022-08-03T19:15:13.247Z,23.56
2022-08-03T19:17:50.082Z,23.47
2022-08-03T19:20:25.094Z,23.38
2022-08-03T19:22:58.028Z,23.34
2022-08-03T19:25:35.240Z,23.27
2022-08-03T19:28:08.196Z,23.15
2022-08-03T19:30:40.484Z,23.10
2022-08-03T19:33:12.518Z,23.03
2022-08-03T19:35:46.638Z,22.93
2022-08-03T19:38:29.517Z,22.83
2022-08-03T19:41:04.065Z,22.77
2022-08-03T19:43:52.786Z,22.67
2022-08-03T19:46:30.678Z,22.63
2022-08-03T19:49:10.547Z,22.52
2022-08-03T19:51:58.994Z,22.44
2022-08-03T19:54:52.932Z,22.36
2022-08-03T19:57:28.613Z,22.30
2022-08-03T20:00:03.597Z,22.24
2022-08-03T20:02:36.841Z,22.20
2022-08-03T20:05:15.381Z,22.15
2022-08-03T20:07:53.627Z,22.10
2022-08-03T20:10:23.081Z,21.98
2022-08-03T20:12:52.690Z,21.99
2022-08-03T20:15:31.754Z,21.92
2022-08-03T20:18:02.586Z,21.87
2022-08-03T20:20:38.862Z,21.86
2022-08-03T20:23:15.586Z,21.81
2022-08-03T20:25:57.335Z,21.73
2022-08-03T20:28:49.639Z,21.73
2022-08-03T20:31:32.376Z,21.66
2022-08-03T20:34:09.132Z,21.62
2022-08-03T20:36:39.326Z,21.63
2022-08-03T20:39:10.972Z,21.57
2022-08-03T20:41:43.778Z,21.53
2022-08-03T20:44:12.672Z,21.50
2022-08-03T20:46:53.238Z,21.42
2022-08-03T20:49:30.362Z,21.42
2022-08-03T20:52:18.578Z,21.38
2022-08-03T20:54:49.090Z,21.37
2022-08-03T20:57:18.504Z,21.36
2022-08-03T20:59:51.440Z,21.37
2022-08-03T21:02:30.365Z,21.40
2022-08-03T21:05:08.658Z,21.38
2022-08-03T21:07:45.726Z,21.38
2022-08-03T21:10:39.834Z,21.41
2022-08-03T21:12:55.172Z,27.07
2022-08-03T21:16:04.781Z,21.41
2022-08-03T21:18:47.554Z,21.32
2022-08-03T21:21:19.858Z,21.38
2022-08-03T21:23:55.444Z,21.35
2022-08-03T21:26:27.813Z,21.33
2022-08-03T21:28:58.249Z,21.29
2022-08-03T21:31:27.294Z,21.22
2022-08-03T21:34:02.412Z,21.21
2022-08-03T21:36:34.165Z,21.19
2022-08-03T21:39:04.681Z,21.09
2022-08-03T21:41:34.542Z,21.01
2022-08-03T21:44:05.790Z,20.95
2022-08-03T21:46:38.721Z,20.88
2022-08-03T21:50:02.643Z,20.83
2022-08-03T21:52:05.356Z,20.71
2022-08-03T21:54:38.016Z,20.68
2022-08-03T21:57:14.284Z,20.65
2022-08-03T21:59:53.132Z,20.57
2022-08-03T22:02:25.937Z,20.49
2022-08-03T22:04:57.230Z,20.46
2022-08-03T22:07:27.543Z,20.37
2022-08-03T22:09:58.455Z,20.34
2022-08-03T22:12:36.723Z,20.28
2022-08-03T22:15:08.826Z,20.24
2022-08-03T22:17:55.986Z,20.20
2022-08-03T22:20:28.730Z,20.17
2022-08-03T22:23:02.439Z,20.10
2022-08-03T22:25:34.609Z,20.09
2022-08-03T22:28:08.222Z,20.05
2022-08-03T22:30:38.687Z,20.04
2022-08-03T22:33:12.021Z,20.01
2022-08-03T22:35:47.954Z,19.92
2022-08-03T22:38:18.819Z,19.88
2022-08-03T22:40:51.128Z,19.85
2022-08-03T22:43:25.290Z,19.84
2022-08-03T22:46:08.931Z,19.77
2022-08-03T22:48:41.885Z,19.77
2022-08-03T22:51:12.348Z,19.67
2022-08-03T22:53:42.073Z,19.63
2022-08-03T22:56:11.472Z,19.63
2022-08-03T22:58:40.242Z,19.58
2022-08-03T23:01:11.230Z,19.62
2022-08-03T23:03:59.332Z,19.49
2022-08-03T23:06:36.753Z,19.49
2022-08-03T23:09:09.641Z,19.51
2022-08-03T23:11:45.253Z,19.38
2022-08-03T23:14:17.633Z,19.37
2022-08-03T23:16:48.321Z,19.35
2022-08-03T23:19:25.061Z,19.33
2022-08-03T23:22:02.557Z,19.27
2022-08-03T23:24:37.006Z,19.27
2022-08-03T23:27:07.396Z,19.19
2022-08-03T23:29:38.638Z,19.18
2022-08-03T23:32:08.855Z,19.14
2022-08-03T23:34:59.036Z,19.14
2022-08-03T23:37:30.282Z,19.11
2022-08-03T23:40:00.572Z,19.03
2022-08-03T23:42:30.923Z,19.02
2022-08-03T23:45:05.503Z,18.99
2022-08-03T23:47:46.853Z,19.01
2022-08-03T23:50:17.255Z,18.96
2022-08-03T23:52:59.476Z,19.00
2022-08-03T23:55:46.637Z,18.96
2022-08-03T23:58:39.554Z,18.91
